createdAt,value
2022-10-22T00:01:03.869Z,1.33
2022-10-22T00:03:31.814Z,0.90
2022-10-22T00:05:59.782Z,1.30
2022-10-22T00:08:27.728Z,1.20
2022-10-22T00:10:55.835Z,0.70
2022-10-22T00:13:25.570Z,1.00
2022-10-22T00:15:53.494Z,1.10
2022-10-22T00:18:21.431Z,1.40
2022-10-22T00:20:49.384Z,1.00
2022-10-22T00:23:17.346Z,1.30
2022-10-22T00:25:45.269Z,1.10
2022-10-22T00:28:13.283Z,1.17
2022-10-22T00:30:42.590Z,1.10
2022-10-22T00:33:10.567Z,0.97
2022-10-22T00:35:40.084Z,0.70
2022-10-22T00:38:08.025Z,0.73
2022-10-22T00:40:36.493Z,1.20
2022-10-22T00:43:04.609Z,0.60
2022-10-22T00:45:32.672Z,1.07
2022-10-22T00:48:05.650Z,0.63
2022-10-22T00:50:39.041Z,0.80
2022-10-22T00:53:11.957Z,0.97
2022-10-22T00:55:40.859Z,0.90
2022-10-22T00:58:08.910Z,2.33
2022-10-22T01:00:36.950Z,0.80
2022-10-22T01:03:06.499Z,0.83
2022-10-22T01:05:42.046Z,0.60
2022-10-22T01:08:16.578Z,1.10
2022-10-22T01:10:55.706Z,0.70
2022-10-22T01:13:34.302Z,0.80
2022-10-22T01:16:10.043Z,0.87
2022-10-22T01:18:49.057Z,0.57
2022-10-22T01:21:25.902Z,1.03
2022-10-22T01:24:30.449Z,0.80
2022-10-22T01:27:08.315Z,0.70
2022-10-22T01:29:41.825Z,0.53
2022-10-22T01:32:13.661Z,0.97
2022-10-22T01:34:45.309Z,0.80
2022-10-22T01:37:16.390Z,0.60
2022-10-22T01:39:47.491Z,0.70
2022-10-22T01:42:15.878Z,0.87
2022-10-22T01:44:45.212Z,0.50
2022-10-22T01:47:18.597Z,1.10
2022-10-22T01:50:14.285Z,0.97
2022-10-22T01:52:57.270Z,0.60
2022-10-22T01:55:31.217Z,0.40
2022-10-22T01:58:09.154Z,0.80
2022-10-22T02:00:41.610Z,0.80
2022-10-22T02:03:18.541Z,0.90
2022-10-22T02:05:53.530Z,0.60
2022-10-22T02:08:25.360Z,0.80
2022-10-22T02:10:55.593Z,0.80
2022-10-22T02:13:27.445Z,0.80
2022-10-22T02:15:58.482Z,0.70
2022-10-22T02:18:30.756Z,0.50
2022-10-22T02:21:01.965Z,0.63
2022-10-22T02:23:30.455Z,0.90
2022-10-22T02:26:07.990Z,0.90
2022-10-22T02:28:39.100Z,0.70
2022-10-22T02:31:14.542Z,0.73
2022-10-22T02:33:46.502Z,0.87
2022-10-22T02:36:15.534Z,0.70
2022-10-22T02:38:44.117Z,1.07
2022-10-22T02:41:12.093Z,0.70
2022-10-22T02:43:44.080Z,0.70
2022-10-22T02:46:13.421Z,1.00
2022-10-22T02:48:41.392Z,1.27
2022-10-22T02:51:09.359Z,1.30
2022-10-22T02:53:37.400Z,0.80
2022-10-22T02:56:05.505Z,1.17
2022-10-22T02:58:33.432Z,0.70
2022-10-22T03:01:01.443Z,0.80
2022-10-22T03:03:30.793Z,0.90
2022-10-22T03:05:58.946Z,0.90
2022-10-22T03:08:26.893Z,0.80
2022-10-22T03:10:54.942Z,0.73
2022-10-22T03:13:23.002Z,0.60
2022-10-22T03:15:51.452Z,0.83
2022-10-22T03:18:19.761Z,0.97
2022-10-22T03:20:49.064Z,0.80
2022-10-22T03:23:19.924Z,1.10
2022-10-22T03:25:52.902Z,0.70
2022-10-22T03:28:21.081Z,0.63
2022-10-22T03:30:49.025Z,0.87
2022-10-22T03:33:16.993Z,1.13
2022-10-22T03:35:47.909Z,0.70
2022-10-22T03:38:17.328Z,0.70
2022-10-22T03:40:47.156Z,0.80
2022-10-22T03:43:15.211Z,1.00
2022-10-22T03:45:43.434Z,0.93
2022-10-22T03:48:11.409Z,0.97
2022-10-22T03:50:39.333Z,0.77
2022-10-22T03:53:10.516Z,1.67
2022-10-22T03:55:42.166Z,0.70
2022-10-22T03:58:10.412Z,1.10
2022-10-22T04:00:38.528Z,0.97
2022-10-22T04:03:06.476Z,0.90
2022-10-22T04:05:34.992Z,0.70
2022-10-22T04:08:02.918Z,0.77
2022-10-22T04:10:30.867Z,0.90
2022-10-22T04:13:00.177Z,0.80
2022-10-22T04:15:29.034Z,0.90
2022-10-22T04:17:57.142Z,1.37
2022-10-22T04:20:25.111Z,0.60
2022-10-22T04:22:53.052Z,0.60
2022-10-22T04:25:20.976Z,1.20
2022-10-22T04:27:48.908Z,0.77
2022-10-22T04:30:18.399Z,0.57
2022-10-22T04:32:46.441Z,0.70
2022-10-22T04:35:14.475Z,2.20
2022-10-22T04:37:42.817Z,0.70
2022-10-22T04:40:12.533Z,1.03
2022-10-22T04:42:40.485Z,0.60
2022-10-22T04:45:09.563Z,0.70
2022-10-22T04:47:39.147Z,1.20
2022-10-22T04:50:08.270Z,0.70
2022-10-22T04:52:36.239Z,0.63
2022-10-22T04:55:04.351Z,0.60
2022-10-22T04:57:33.105Z,0.90
2022-10-22T05:00:01.122Z,1.10
2022-10-22T05:02:29.074Z,0.93
2022-10-22T05:04:58.453Z,0.70
2022-10-22T05:07:26.433Z,0.77
2022-10-22T05:09:55.025Z,0.90
2022-10-22T05:12:22.999Z,0.90
2022-10-22T05:14:50.930Z,0.83
2022-10-22T05:17:18.912Z,0.80
2022-10-22T05:19:46.855Z,0.60
2022-10-22T05:22:16.158Z,1.67
2022-10-22T05:24:44.132Z,1.20
2022-10-22T05:27:12.461Z,0.77
2022-10-22T05:29:40.425Z,0.80
2022-10-22T05:32:08.394Z,0.70
2022-10-22T05:34:37.093Z,0.90
2022-10-22T05:37:05.495Z,0.63
2022-10-22T05:39:36.810Z,1.20
2022-10-22T05:42:05.068Z,1.00
2022-10-22T05:44:33.150Z,1.00
2022-10-22T05:47:01.430Z,0.90
2022-10-22T05:49:29.428Z,1.07
2022-10-22T05:51:57.376Z,0.90
2022-10-22T05:54:25.321Z,1.10
2022-10-22T05:56:55.600Z,1.07
2022-10-22T05:59:23.535Z,1.30
2022-10-22T06:01:51.762Z,1.47
2022-10-22T06:04:19.843Z,1.07
2022-10-22T06:06:49.900Z,1.27
2022-10-22T06:09:22.239Z,0.83
2022-10-22T06:11:50.957Z,1.30
2022-10-22T06:14:21.392Z,0.90
2022-10-22T06:16:50.422Z,0.90
2022-10-22T06:19:20.498Z,0.70
2022-10-22T06:21:48.897Z,0.70
2022-10-22T06:24:17.009Z,0.60
2022-10-22T06:26:45.017Z,0.70
2022-10-22T06:29:12.951Z,0.60
2022-10-22T06:31:42.306Z,1.30
2022-10-22T06:34:14.351Z,0.80
2022-10-22T06:36:43.142Z,1.10
2022-10-22T06:39:13.262Z,0.80
2022-10-22T06:41:41.366Z,1.10
2022-10-22T06:44:13.696Z,0.70
2022-10-22T06:46:43.621Z,0.90
2022-10-22T06:49:14.870Z,1.00
2022-10-22T06:51:42.942Z,0.67
2022-10-22T06:54:10.917Z,0.60
2022-10-22T06:56:38.922Z,1.20
2022-10-22T06:59:06.908Z,0.60
2022-10-22T07:01:36.201Z,0.70
2022-10-22T07:04:06.932Z,0.90
2022-10-22T07:06:34.935Z,0.83
2022-10-22T07:09:03.117Z,0.70
2022-10-22T07:11:35.291Z,0.60
2022-10-22T07:14:03.220Z,0.73
2022-10-22T07:16:32.467Z,0.60
2022-10-22T07:19:01.229Z,0.70
2022-10-22T07:21:31.317Z,0.63
2022-10-22T07:24:00.024Z,0.70
2022-10-22T07:26:30.956Z,1.00
2022-10-22T07:28:59.370Z,0.60
2022-10-22T07:31:28.133Z,0.70
2022-10-22T07:33:56.096Z,0.50
2022-10-22T07:36:24.179Z,0.63
2022-10-22T07:38:57.608Z,0.73
2022-10-22T07:41:25.819Z,0.60
2022-10-22T07:43:53.772Z,0.70
2022-10-22T07:46:21.990Z,0.93
2022-10-22T07:48:50.119Z,0.70
2022-10-22T07:51:18.705Z,0.50
2022-10-22T07:53:46.673Z,1.30
2022-10-22T07:56:16.004Z,2.60
2022-10-22T07:58:43.940Z,0.60
2022-10-22T08:01:11.998Z,0.80
2022-10-22T08:03:40.004Z,0.67
2022-10-22T08:06:10.552Z,0.77
2022-10-22T08:08:38.660Z,0.60
2022-10-22T08:11:06.943Z,0.70
2022-10-22T08:13:36.363Z,0.80
2022-10-22T08:16:05.121Z,0.73
2022-10-22T08:18:33.105Z,0.90
2022-10-22T08:21:01.068Z,0.80
2022-10-22T08:23:29.714Z,0.80
2022-10-22T08:25:58.466Z,0.80
2022-10-22T08:28:28.678Z,1.60
2022-10-22T08:30:57.975Z,0.60
2022-10-22T08:33:26.410Z,0.80
2022-10-22T08:35:54.684Z,1.20
2022-10-22T08:38:22.716Z,1.10
2022-10-22T08:40:54.932Z,1.10
2022-10-22T08:43:48.375Z,0.90
2022-10-22T08:46:32.577Z,1.07
2022-10-22T08:49:04.009Z,1.10
2022-10-22T08:51:34.877Z,1.67
2022-10-22T08:54:28.697Z,0.60
2022-10-22T08:57:12.641Z,0.73
2022-10-22T08:59:47.500Z,1.07
2022-10-22T09:02:29.587Z,1.07
2022-10-22T09:05:11.484Z,0.90
2022-10-22T09:07:42.924Z,0.87
2022-10-22T09:10:13.708Z,0.83
2022-10-22T09:12:41.874Z,1.10
2022-10-22T09:15:15.006Z,0.77
2022-10-22T09:17:56.491Z,1.10
2022-10-22T09:20:29.818Z,0.93
2022-10-22T09:23:06.514Z,1.23
2022-10-22T09:25:37.796Z,1.40
2022-10-22T09:28:06.098Z,1.17
2022-10-22T09:30:37.894Z,0.90
2022-10-22T09:33:15.337Z,0.87
2022-10-22T09:35:48.970Z,0.90
2022-10-22T09:38:19.946Z,1.13
2022-10-22T09:40:50.730Z,0.83
2022-10-22T09:43:19.561Z,0.80
2022-10-22T09:45:48.419Z,1.10
2022-10-22T09:48:26.413Z,0.70
2022-10-22T09:51:00.094Z,0.70
2022-10-22T09:53:30.430Z,1.00
2022-10-22T09:56:01.324Z,0.97
2022-10-22T09:58:29.567Z,1.07
2022-10-22T10:01:00.295Z,1.00
2022-10-22T10:03:33.107Z,0.70
2022-10-22T10:06:05.906Z,1.10
2022-10-22T10:08:34.551Z,1.00
2022-10-22T10:11:07.100Z,1.00
2022-10-22T10:13:46.202Z,1.03
2022-10-22T10:16:20.296Z,0.90
2022-10-22T10:18:57.186Z,1.00
2022-10-22T10:21:30.509Z,1.13
2022-10-22T10:24:02.493Z,1.00
2022-10-22T10:26:34.889Z,1.20
2022-10-22T10:29:16.026Z,1.03
2022-10-22T10:31:52.593Z,0.80
2022-10-22T10:34:30.049Z,1.00
2022-10-22T10:37:05.272Z,0.67
2022-10-22T10:39:41.232Z,1.10
2022-10-22T10:42:15.436Z,0.97
2022-10-22T10:44:52.852Z,1.20
2022-10-22T10:47:30.566Z,1.90
2022-10-22T10:50:04.804Z,0.87
2022-10-22T10:52:41.148Z,0.80
2022-10-22T10:55:17.913Z,1.23
2022-10-22T10:57:51.097Z,0.93
2022-10-22T11:00:24.537Z,0.53
2022-10-22T11:03:01.950Z,0.70
2022-10-22T11:05:34.261Z,0.80
2022-10-22T11:08:05.731Z,0.80
2022-10-22T11:10:38.409Z,0.70
2022-10-22T11:13:12.847Z,0.80
2022-10-22T11:15:43.069Z,0.73
2022-10-22T11:18:16.348Z,0.80
2022-10-22T11:20:53.616Z,1.10
2022-10-22T11:23:26.339Z,0.80
2022-10-22T11:25:55.679Z,1.00
2022-10-22T11:28:29.051Z,0.83
2022-10-22T11:31:01.560Z,0.90
2022-10-22T11:33:37.006Z,1.20
2022-10-22T11:36:08.095Z,0.83
2022-10-22T11:38:36.789Z,0.70
2022-10-22T11:41:08.300Z,0.90
2022-10-22T11:43:37.176Z,0.60
2022-10-22T11:46:26.745Z,0.70
2022-10-22T11:49:06.448Z,0.60
2022-10-22T11:51:37.039Z,0.60
2022-10-22T11:54:25.394Z,0.90
2022-10-22T11:56:54.671Z,0.70
2022-10-22T11:59:35.794Z,0.80
2022-10-22T12:02:04.088Z,0.70
2022-10-22T12:04:42.263Z,0.93
2022-10-22T12:07:25.486Z,0.60
2022-10-22T12:09:55.138Z,0.90
2022-10-22T12:12:23.457Z,0.60
2022-10-22T12:14:55.763Z,0.53
2022-10-22T12:17:24.580Z,0.70
2022-10-22T12:19:58.577Z,1.00
2022-10-22T12:22:31.562Z,0.80
2022-10-22T12:25:03.456Z,1.37
2022-10-22T12:27:36.440Z,0.70
2022-10-22T12:30:18.231Z,0.70
2022-10-22T12:32:47.114Z,1.30
2022-10-22T12:35:18.221Z,0.60
2022-10-22T12:37:46.517Z,0.70
2022-10-22T12:40:20.882Z,0.60
2022-10-22T12:42:50.001Z,0.83
2022-10-22T12:45:18.348Z,0.97
2022-10-22T12:47:49.869Z,0.70
2022-10-22T12:50:19.857Z,0.60
2022-10-22T12:52:48.157Z,0.60
2022-10-22T12:55:17.714Z,1.00
2022-10-22T12:57:49.343Z,0.93
2022-10-22T13:00:25.240Z,0.63
2022-10-22T13:02:54.194Z,0.70
2022-10-22T13:05:24.904Z,0.50
2022-10-22T13:07:54.550Z,0.73
2022-10-22T13:10:26.213Z,0.70
2022-10-22T13:12:58.137Z,1.07
2022-10-22T13:15:37.190Z,0.90
2022-10-22T13:18:06.517Z,0.93
2022-10-22T13:20:37.329Z,0.70
2022-10-22T13:23:06.495Z,0.93
2022-10-22T13:25:35.654Z,0.83
2022-10-22T13:28:14.807Z,0.70
2022-10-22T13:30:52.994Z,0.60
2022-10-22T13:33:24.963Z,0.93
2022-10-22T13:35:53.370Z,0.80
2022-10-22T13:38:22.562Z,0.80
2022-10-22T13:40:50.879Z,0.50
2022-10-22T13:43:20.993Z,0.90
2022-10-22T13:45:49.897Z,0.60
2022-10-22T13:48:21.771Z,0.60
2022-10-22T13:50:50.241Z,1.07
2022-10-22T13:53:20.628Z,0.50
2022-10-22T13:55:50.154Z,0.50
2022-10-22T13:58:19.186Z,0.70
2022-10-22T14:00:49.704Z,0.70
2022-10-22T14:03:19.992Z,0.83
2022-10-22T14:05:48.865Z,0.67
2022-10-22T14:08:18.249Z,0.80
2022-10-22T14:10:46.746Z,0.80
2022-10-22T14:13:15.472Z,0.70
2022-10-22T14:15:44.369Z,0.60
2022-10-22T14:18:24.050Z,0.40
2022-10-22T14:20:53.090Z,0.60
2022-10-22T14:23:22.256Z,0.70
2022-10-22T14:25:51.003Z,0.50
2022-10-22T14:28:19.302Z,0.67
2022-10-22T14:30:48.074Z,0.57
2022-10-22T14:33:19.997Z,0.70
2022-10-22T14:35:49.586Z,0.50
2022-10-22T14:38:18.203Z,0.60
2022-10-22T14:40:46.692Z,0.87
2022-10-22T14:43:16.189Z,0.90
2022-10-22T14:45:44.450Z,1.67
2022-10-22T14:48:12.785Z,1.20
2022-10-22T14:50:42.436Z,2.13
2022-10-22T14:53:10.684Z,3.20
2022-10-22T14:55:38.978Z,2.70
2022-10-22T14:58:07.296Z,3.60
2022-10-22T15:00:36.898Z,3.90
2022-10-22T15:03:05.411Z,2.50
2022-10-22T15:05:33.674Z,2.17
2022-10-22T15:08:03.399Z,2.73
2022-10-22T15:10:31.653Z,1.73
2022-10-22T15:12:59.949Z,1.23
2022-10-22T15:15:31.659Z,4.10
2022-10-22T15:18:06.172Z,2.77
2022-10-22T15:20:34.452Z,3.73
2022-10-22T15:23:04.090Z,5.10
2022-10-22T15:25:32.382Z,4.07
2022-10-22T15:28:04.803Z,1.80
2022-10-22T15:30:37.576Z,1.70
2022-10-22T15:33:05.920Z,1.37
2022-10-22T15:35:34.384Z,1.57
2022-10-22T15:38:06.472Z,1.60
2022-10-22T15:40:34.830Z,2.70
2022-10-22T15:43:03.126Z,1.90
2022-10-22T15:45:31.467Z,1.03
2022-10-22T15:47:59.732Z,1.17
2022-10-22T15:50:28.078Z,1.00
2022-10-22T15:52:56.378Z,1.37
2022-10-22T15:55:26.016Z,1.40
2022-10-22T15:57:58.057Z,1.30
2022-10-22T16:00:28.816Z,0.93
2022-10-22T16:02:57.098Z,0.87
2022-10-22T16:05:25.369Z,0.80
2022-10-22T16:07:55.735Z,0.80
2022-10-22T16:10:24.437Z,1.00
2022-10-22T16:12:54.864Z,1.93
2022-10-22T16:15:23.101Z,2.03
2022-10-22T16:17:53.308Z,2.90
2022-10-22T16:20:21.600Z,2.23
2022-10-22T16:22:51.374Z,3.50
2022-10-22T16:25:19.697Z,3.70
2022-10-22T16:27:50.716Z,3.97
2022-10-22T16:30:20.348Z,3.20
2022-10-22T16:32:48.746Z,2.30
2022-10-22T16:35:17.132Z,2.07
2022-10-22T16:37:45.391Z,1.20
2022-10-22T16:40:14.272Z,1.37
2022-10-22T16:42:44.046Z,1.20
2022-10-22T16:45:12.821Z,1.33
2022-10-22T16:47:45.741Z,1.43
2022-10-22T16:50:14.313Z,1.20
2022-10-22T16:52:42.855Z,1.50
2022-10-22T16:55:11.364Z,2.90
2022-10-22T16:57:39.833Z,1.50
2022-10-22T17:00:08.976Z,1.30
2022-10-22T17:02:37.438Z,1.50
2022-10-22T17:05:07.711Z,1.40
2022-10-22T17:07:35.981Z,1.00
2022-10-22T17:10:05.216Z,1.30
2022-10-22T17:12:35.334Z,1.40
2022-10-22T17:15:03.912Z,1.47
2022-10-22T17:17:32.441Z,1.90
2022-10-22T17:20:00.872Z,1.20
2022-10-22T17:22:30.508Z,1.10
2022-10-22T17:25:08.493Z,1.40
2022-10-22T17:27:36.846Z,1.80
2022-10-22T17:30:05.414Z,1.17
2022-10-22T17:32:33.893Z,1.10
2022-10-22T17:35:02.200Z,1.30
2022-10-22T17:37:31.847Z,0.90
2022-10-22T17:40:01.250Z,1.97
2022-10-22T17:42:29.799Z,1.63
2022-10-22T17:44:59.412Z,4.40
2022-10-22T17:47:27.715Z,3.40
2022-10-22T17:49:55.974Z,2.80
2022-10-22T17:52:24.257Z,4.20
2022-10-22T17:54:54.449Z,2.43
2022-10-22T17:57:22.740Z,1.50
2022-10-22T17:59:51.072Z,2.07
2022-10-22T18:02:19.618Z,1.17
2022-10-22T18:04:47.886Z,1.03
2022-10-22T18:07:16.232Z,1.57
2022-10-22T18:09:44.784Z,1.80
2022-10-22T18:12:14.842Z,1.57
2022-10-22T18:14:43.297Z,2.87
2022-10-22T18:17:11.704Z,1.10
2022-10-22T18:19:39.997Z,1.20
2022-10-22T18:22:08.276Z,3.17
2022-10-22T18:24:38.909Z,1.60
2022-10-22T18:27:07.173Z,1.50
2022-10-22T18:29:36.820Z,1.50
2022-10-22T18:32:12.083Z,1.70
2022-10-22T18:34:41.272Z,1.07
2022-10-22T18:37:09.572Z,0.90
2022-10-22T18:39:37.856Z,1.00
2022-10-22T18:42:07.236Z,1.30
2022-10-22T18:44:37.085Z,1.50
2022-10-22T18:47:06.196Z,2.07
2022-10-22T18:49:34.478Z,1.10
2022-10-22T18:52:02.872Z,1.17
2022-10-22T18:54:31.271Z,1.40
2022-10-22T18:57:02.837Z,1.80
2022-10-22T18:59:31.713Z,1.30
2022-10-22T19:02:01.348Z,1.10
2022-10-22T19:04:33.231Z,0.83
2022-10-22T19:07:01.632Z,1.10
2022-10-22T19:09:30.039Z,1.17
2022-10-22T19:11:58.372Z,2.30
2022-10-22T19:14:26.628Z,0.90
2022-10-22T19:16:54.908Z,3.43
2022-10-22T19:19:24.782Z,1.50
2022-10-22T19:21:56.521Z,1.80
2022-10-22T19:24:24.818Z,1.83
2022-10-22T19:26:53.427Z,2.13
2022-10-22T19:29:22.997Z,1.40
2022-10-22T19:31:51.978Z,1.60
2022-10-22T19:34:20.655Z,1.63
2022-10-22T19:36:52.116Z,1.40
2022-10-22T19:39:23.744Z,1.20
2022-10-22T19:41:52.159Z,1.40
2022-10-22T19:44:20.804Z,1.87
2022-10-22T19:46:49.152Z,2.30
2022-10-22T19:49:21.844Z,1.10
2022-10-22T19:51:52.601Z,1.03
2022-10-22T19:54:21.082Z,1.57
2022-10-22T19:56:49.888Z,1.10
2022-10-22T19:59:20.431Z,0.93
2022-10-22T20:01:48.771Z,1.20
2022-10-22T20:04:17.781Z,1.23
2022-10-22T20:06:46.354Z,1.70
2022-10-22T20:09:16.405Z,1.53
2022-10-22T20:11:44.787Z,1.23
2022-10-22T20:14:13.134Z,1.40
2022-10-22T20:16:41.391Z,1.80
2022-10-22T20:19:10.804Z,1.20
2022-10-22T20:21:40.402Z,1.70
2022-10-22T20:24:08.716Z,2.23
2022-10-22T20:26:38.324Z,1.33
2022-10-22T20:29:07.658Z,1.73
2022-10-22T20:31:36.613Z,1.50
2022-10-22T20:34:05.172Z,1.80
2022-10-22T20:36:34.092Z,1.50
2022-10-22T20:39:03.246Z,1.07
2022-10-22T20:41:31.721Z,1.93
2022-10-22T20:44:01.452Z,1.63
2022-10-22T20:46:30.802Z,1.20
2022-10-22T20:49:01.020Z,2.40
2022-10-22T20:51:29.374Z,1.60
2022-10-22T20:53:57.675Z,1.57
2022-10-22T20:56:26.119Z,1.30
2022-10-22T20:59:04.132Z,1.73
2022-10-22T21:01:35.086Z,1.50
2022-10-22T21:04:03.377Z,1.63
2022-10-22T21:06:31.688Z,2.17
2022-10-22T21:09:00.013Z,1.33
2022-10-22T21:11:28.329Z,1.97
2022-10-22T21:13:56.576Z,1.90
2022-10-22T21:16:24.845Z,2.10
2022-10-22T21:18:54.456Z,2.10
2022-10-22T21:21:22.813Z,1.53
2022-10-22T21:23:51.388Z,2.70
2022-10-22T21:26:19.766Z,2.03
2022-10-22T21:28:48.052Z,2.37
2022-10-22T21:31:21.835Z,1.90
2022-10-22T21:33:50.715Z,1.53
2022-10-22T21:36:23.033Z,2.60
2022-10-22T21:38:52.065Z,3.13
2022-10-22T21:41:21.363Z,2.20
2022-10-22T21:43:49.638Z,2.53
2022-10-22T21:46:19.055Z,4.30
2022-10-22T21:48:47.590Z,4.03
2022-10-22T21:51:17.285Z,1.60
2022-10-22T21:53:47.572Z,2.53
2022-10-22T21:56:16.437Z,1.70
2022-10-22T21:58:45.065Z,1.83
2022-10-22T22:01:14.533Z,1.60
2022-10-22T22:03:43.562Z,1.80
2022-10-22T22:06:12.153Z,1.63
2022-10-22T22:08:40.557Z,1.80
2022-10-22T22:11:11.220Z,2.30
2022-10-22T22:13:39.843Z,1.73
2022-10-22T22:16:09.455Z,2.17
2022-10-22T22:18:38.024Z,2.37
2022-10-22T22:21:07.056Z,2.10
2022-10-22T22:23:35.489Z,1.97
2022-10-22T22:26:03.982Z,1.70
2022-10-22T22:28:34.038Z,2.53
2022-10-22T22:31:02.698Z,2.50
2022-10-22T22:33:30.954Z,2.00
2022-10-22T22:36:02.299Z,1.27
2022-10-22T22:38:30.567Z,3.50
2022-10-22T22:41:00.628Z,4.57
2022-10-22T22:43:29.425Z,5.67
2022-10-22T22:46:02.422Z,5.07
2022-10-22T22:48:32.071Z,3.20
2022-10-22T22:51:00.956Z,2.60
2022-10-22T22:53:29.550Z,2.30
2022-10-22T22:56:05.109Z,2.10
2022-10-22T22:58:33.429Z,2.47
2022-10-22T23:01:13.800Z,1.70
2022-10-22T23:03:42.452Z,2.27
2022-10-22T23:06:11.095Z,2.00
2022-10-22T23:08:39.770Z,3.60
2022-10-22T23:11:09.258Z,2.73
2022-10-22T23:13:37.646Z,3.33
2022-10-22T23:16:09.896Z,2.23
2022-10-22T23:18:39.541Z,2.20
2022-10-22T23:21:08.036Z,2.83
2022-10-22T23:23:36.392Z,2.90
2022-10-22T23:26:04.669Z,2.07
2022-10-22T23:28:32.970Z,2.80
2022-10-22T23:31:01.323Z,2.23
2022-10-22T23:33:29.603Z,3.00
2022-10-22T23:36:01.837Z,3.83
2022-10-22T23:38:30.084Z,3.50
2022-10-22T23:40:58.781Z,3.60
2022-10-22T23:43:27.387Z,3.47
2022-10-22T23:45:56.007Z,3.67
2022-10-22T23:48:24.343Z,3.43
2022-10-22T23:53:23.215Z,2.50
2022-10-22T23:55:51.472Z,3.10
2022-10-22T23:58:19.735Z,2.67
